Latest Weather Observations for Jandakot

IDW60801

Issued at 7:32 pm WST Thursday 5 March 2015 (issued every 30 minutes, with the page automatically refreshed every 10 minutes)

About weather observations | Map of weather stations | Latest weather observations for WA | Other Formats
Station Details ID: 009172 Name: JANDAKOT AERO Lat: -32.10 Lon: 115.88 Height: 30.0 m
Data from the previous 72 hours. | See also: Recent months at Jandakot
Date/Time
WST
Temp
°C
App
Temp
°C
Dew
Point
Rel
Hum
%
Delta-T
°C
Wind Press
QNH
hPa
Press
MSL
hPa
Rain
since 9 am
mm
Dir
 
Spd
km/h
Gust
km/h
Spd
kts
Gust
kts
05/07:30pm 26.7 23.6 7.3 29 10.3 ESE 13 17 7 9 1020.2 1020.1 0.0
05/07:00pm 28.4 25.2 7.0 26 11.4 ESE 13 20 7 11 1019.8 1019.7 0.0
05/06:30pm 30.0 26.0 6.6 23 12.5 ESE 17 26 9 14 1019.5 1019.4 0.0
05/06:00pm 31.0 26.7 6.9 22 13.0 ESE 19 28 10 15 1019.3 1019.2 0.0
05/05:30pm 31.8 26.7 5.9 19 13.8 E 22 28 12 15 1019.1 1019.0 0.0
05/05:00pm 32.0 27.1 5.3 18 14.1 E 20 28 11 15 1019.0 1018.9 0.0
05/04:30pm 32.3 26.7 5.6 18 14.2 ESE 24 33 13 18 1019.0 1018.9 0.0
05/04:00pm 32.3 28.4 7.2 21 13.7 ESE 17 26 9 14 1019.1 1019.0 0.0
05/03:30pm 32.6 29.0 6.8 20 14.0 E 15 26 8 14 1019.2 1019.1 0.0
05/03:00pm 32.0 28.3 8.1 22 13.2 ESE 17 26 9 14 1019.6 1019.5 0.0
05/02:30pm 32.3 28.3 8.1 22 13.4 ENE 19 28 10 15 1020.1 1020.0 0.0
05/02:00pm 32.0 27.8 8.1 22 13.2 E 20 30 11 16 1020.6 1020.5 0.0
05/01:30pm 31.2 27.5 8.1 23 12.7 E 17 30 9 16 1021.0 1020.9 0.0
05/01:00pm 30.6 26.8 9.1 26 12.0 E 19 32 10 17 1021.5 1021.4 0.0
05/12:30pm 30.1 26.1 9.0 27 11.8 ESE 20 28 11 15 1022.0 1021.9 0.0
05/12:00pm 28.8 24.2 9.8 30 10.6 E 24 33 13 18 1022.4 1022.3 0.0
05/11:30am 28.9 25.3 10.5 31 10.4 ENE 20 30 11 16 1022.9 1022.8 0.0
05/11:00am 27.6 23.8 11.0 35 9.4 ENE 22 37 12 20 1023.4 1023.3 0.0
05/10:30am 26.5 22.0 11.3 38 8.6 ENE 26 37 14 20 1023.8 1023.7 0.0
05/10:00am 25.8 21.4 11.7 41 8.0 ENE 26 35 14 19 1024.1 1024.0 0.0
05/09:30am 24.5 21.5 11.8 45 7.2 ENE 19 30 10 16 1024.2 1024.1 0.0
05/09:00am 23.0 20.3 11.8 49 6.3 E 17 24 9 13 1024.2 1024.1 0.0
05/08:30am 21.5 18.9 12.0 54 5.3 E 17 22 9 12 1024.3 1024.2 0.0
05/08:00am 20.8 18.3 12.4 58 4.7 E 17 22 9 12 1024.2 1024.1 0.0
05/07:30am 19.3 16.2 12.1 63 4.0 ESE 20 28 11 15 1024.2 1024.1 0.0
05/07:00am 18.5 14.6 12.0 66 3.6 ESE 24 33 13 18 1023.9 1023.8 0.0
05/06:30am 17.8 14.2 12.0 69 3.2 ESE 22 30 12 16 1023.7 1023.6 0.0
05/06:00am 18.0 14.0 11.8 67 3.4 ESE 24 35 13 19 1023.4 1023.3 0.0
05/05:30am 18.2 14.2 11.8 66 3.5 E 24 35 13 19 1023.1 1023.0 0.0
05/05:00am 18.2 15.2 11.8 66 3.5 E 19 24 10 13 1023.1 1023.0 0.0
05/04:30am 18.7 15.6 11.6 63 3.9 E 19 26 10 14 1022.7 1022.6 0.0
05/04:00am 19.0 16.3 11.7 62 4.0 E 17 26 9 14 1022.7 1022.6 0.0
05/03:30am 19.4 16.7 11.6 60 4.3 ESE 17 30 9 16 1022.5 1022.4 0.0
05/03:00am 20.1 16.7 11.4 57 4.8 ESE 20 30 11 16 1022.2 1022.1 0.0
05/02:30am 20.6 16.5 11.3 55 5.1 E 24 30 13 16 1021.9 1021.8 0.0
05/02:00am 21.1 17.4 11.5 54 5.3 E 22 32 12 17 1021.8 1021.7 0.0
05/01:30am 21.8 18.0 11.3 51 5.8 E 22 37 12 20 1021.7 1021.6 0.0
05/01:00am 22.6 17.6 10.8 47 6.5 ESE 28 37 15 20 1021.7 1021.6 0.0
05/12:30am 23.4 18.2 10.3 43 7.2 E 28 46 15 25 1021.7 1021.6 0.0
05/12:28am 23.5 18.3 10.2 43 7.3 E 28 46 15 25 1021.7 1021.6 0.0
05/12:00am 24.1 19.5 9.6 39 7.9 ESE 24 37 13 20 1021.5 1021.4 0.0
 
Date/Time
WST
Temp
°C
App
Temp
°C
Dew
Point
Rel
Hum
%
Delta-T
°C
Wind Press
QNH
hPa
Press
MSL
hPa
Rain
since 9 am
mm
Dir
 
Spd
km/h
Gust
km/h
Spd
kts
Gust
kts
04/11:30pm 24.7 19.3 9.4 38 8.3 E 28 39 15 21 1021.5 1021.4 0.0
04/11:00pm 25.0 21.1 9.4 37 8.5 ESE 20 26 11 14 1021.5 1021.4 0.0
04/10:30pm 25.3 21.1 8.3 34 9.1 E 20 28 11 15 1021.4 1021.3 0.0
04/10:00pm 26.1 21.3 7.4 30 9.9 ESE 22 33 12 18 1021.2 1021.1 0.0
04/09:30pm 25.9 22.2 7.9 32 9.6 ESE 17 20 9 11 1021.1 1021.0 0.0
04/09:00pm 26.0 22.4 8.3 32 9.5 ESE 17 24 9 13 1020.9 1020.8 0.0
04/08:30pm 25.9 22.8 9.0 34 9.2 ESE 15 17 8 9 1020.6 1020.5 0.0
04/08:00pm 26.3 23.6 8.8 33 9.5 SE 13 17 7 9 1020.2 1020.1 0.0
04/07:30pm 27.2 24.6 9.4 32 9.8 ESE 13 15 7 8 1019.9 1019.8 0.0
04/07:00pm 28.6 25.9 9.0 29 10.8 ESE 13 17 7 9 1019.6 1019.5 0.0
04/06:30pm 30.1 26.1 8.2 25 12.0 ESE 19 26 10 14 1019.4 1019.3 0.0
04/06:00pm 31.1 27.6 8.8 25 12.4 E 17 24 9 13 1019.2 1019.1 0.0
04/05:30pm 31.6 27.1 8.6 24 12.8 ESE 22 32 12 17 1019.0 1018.9 0.0
04/05:00pm 31.5 27.6 9.3 25 12.5 ESE 20 28 11 15 1018.8 1018.7 0.0
04/04:30pm 31.3 27.5 8.9 25 12.5 E 19 32 10 17 1018.8 1018.7 0.0
04/04:00pm 32.3 29.0 9.5 24 12.9 E 17 28 9 15 1018.8 1018.7 0.0
04/03:30pm 32.4 28.4 9.1 23 13.1 E 20 30 11 16 1018.8 1018.7 0.0
04/03:00pm 32.5 28.8 9.6 24 13.0 E 19 28 10 15 1019.0 1018.9 0.0
04/02:30pm 31.8 27.9 9.5 25 12.6 E 20 30 11 16 1019.2 1019.1 0.0
04/02:00pm 31.6 28.1 10.8 27 12.0 E 20 35 11 19 1019.6 1019.5 0.0
04/01:30pm 31.6 28.0 10.7 27 12.0 E 20 33 11 18 1019.8 1019.7 0.0
04/01:00pm 31.0 27.8 11.3 29 11.4 E 19 26 10 14 1020.2 1020.1 0.0
04/12:30pm 30.2 28.0 12.0 32 10.6 E 15 24 8 13 1020.5 1020.4 0.0
04/12:00pm 28.7 26.8 12.9 37 9.3 E 15 28 8 15 1021.2 1021.1 0.0
04/11:30am 28.2 26.3 13.1 39 8.9 ESE 15 20 8 11 1021.6 1021.5 0.0
04/11:00am 27.5 25.8 13.6 42 8.2 ENE 15 26 8 14 1021.9 1021.8 0.0
04/10:30am 25.7 23.5 13.2 46 7.3 ENE 17 22 9 12 1022.3 1022.2 0.0
04/10:00am 24.6 22.8 13.2 49 6.6 E 15 24 8 13 1022.4 1022.3 0.0
04/09:30am 23.8 20.9 13.0 50 6.2 E 20 28 11 15 1022.4 1022.3 0.0
04/09:00am 22.7 19.1 13.1 54 5.5 E 24 33 13 18 1022.5 1022.4 0.0
04/08:30am 21.4 18.2 13.0 58 4.8 ESE 22 33 12 18 1022.7 1022.6 0.0
04/08:00am 20.3 17.2 13.3 64 4.0 ESE 22 32 12 17 1022.6 1022.5 0.0
04/07:30am 19.3 17.0 13.1 67 3.5 E 17 30 9 16 1022.4 1022.3 0.0
04/07:00am 18.2 13.8 13.0 71 2.9 E 28 39 15 21 1022.0 1021.9 0.0
04/06:34am 17.7 12.9 12.9 73 2.7 ESE 30 48 16 26 1021.7 1021.6 0.0
04/06:30am 17.7 12.5 12.9 73 2.7 ESE 32 48 17 26 1021.6 1021.5 0.0
04/06:00am 17.8 13.4 12.8 72 2.8 E 28 35 15 19 1021.4 1021.3 0.0
04/05:30am 17.7 14.0 12.7 72 2.8 E 24 39 13 21 1020.9 1020.8 0.0
04/05:00am 18.0 14.6 12.6 70 3.0 ESE 22 33 12 18 1020.5 1020.4 0.0
04/04:30am 18.2 14.8 12.4 69 3.2 ESE 22 32 12 17 1020.2 1020.1 0.0
04/04:00am 18.8 15.0 12.3 66 3.6 ESE 24 33 13 18 1020.1 1020.0 0.0
04/03:30am 19.1 16.0 12.1 64 3.9 ESE 20 30 11 16 1020.0 1019.9 0.0
04/03:00am 19.7 17.5 12.2 62 4.2 ESE 15 24 8 13 1019.9 1019.8 0.0
04/02:30am 20.0 18.1 11.7 59 4.6 SE 13 20 7 11 1019.8 1019.7 0.0
04/02:00am 20.4 17.6 11.5 56 4.9 ESE 17 28 9 15 1019.8 1019.7 0.0
04/01:30am 20.7 17.4 11.7 56 5.0 ESE 20 33 11 18 1019.8 1019.7 0.0
04/01:00am 21.3 16.1 11.6 54 5.4 ESE 30 41 16 22 1019.7 1019.6 0.0
04/12:30am 21.9 17.2 11.9 53 5.6 ESE 28 50 15 27 1019.7 1019.6 0.0
04/12:29am 21.8 17.2 12.2 54 5.4 ESE 28 50 15 27 1019.7 1019.6 0.0
04/12:00am 22.3 19.0 12.8 55 5.4 ESE 22 33 12 18 1019.7 1019.6 0.0
 
Date/Time
WST
Temp
°C
App
Temp
°C
Dew
Point
Rel
Hum
%
Delta-T
°C
Wind Press
QNH
hPa
Press
MSL
hPa
Rain
since 9 am
mm
Dir
 
Spd
km/h
Gust
km/h
Spd
kts
Gust
kts
03/11:30pm 22.9 20.0 12.8 53 5.8 ESE 20 30 11 16 1019.7 1019.6 0.0
03/11:00pm 23.7 19.4 12.1 48 6.6 ESE 26 43 14 23 1019.5 1019.4 0.0
03/10:30pm 24.4 20.0 11.7 45 7.2 ESE 26 39 14 21 1019.5 1019.4 0.0
03/10:00pm 24.9 21.4 10.2 39 8.1 SE 19 28 10 15 1019.5 1019.4 0.0
03/09:30pm 24.1 21.5 9.3 39 8.0 SE 13 15 7 8 1019.4 1019.3 0.0
03/09:00pm 25.3 21.9 9.1 35 8.8 ESE 17 20 9 11 1019.0 1018.9 0.0
03/08:30pm 25.2 22.6 9.5 37 8.6 ESE 13 17 7 9 1018.6 1018.5 0.0
03/08:00pm 26.1 23.2 9.5 35 9.1 ESE 15 19 8 10 1018.1 1018.0 0.0
03/07:30pm 27.1 24.1 9.3 32 9.8 ESE 15 19 8 10 1017.7 1017.6 0.0
03/07:00pm 27.9 24.2 9.3 31 10.3 ESE 19 28 10 15 1017.1 1017.0 0.0
03/06:30pm 28.9 25.6 9.5 29 10.8 ESE 17 24 9 13 1016.9 1016.8 0.0
03/06:00pm 30.0 25.6 8.9 26 11.7 ESE 22 32 12 17 1016.6 1016.5 0.0
03/05:30pm 30.4 26.0 9.1 26 11.9 ESE 22 28 12 15 1016.5 1016.4 0.0
03/05:00pm 29.4 26.7 12.8 36 9.8 SSW 19 32 10 17 1016.5 1016.4 0.0
03/04:30pm 29.8 27.8 14.9 40 9.1 W 19 30 10 16 1016.6 1016.5 0.0
03/04:00pm 29.1 25.9 14.3 40 8.9 WSW 24 35 13 19 1016.6 1016.5 0.0
03/03:30pm 29.2 27.1 15.3 42 8.5 WSW 20 33 11 18 1016.9 1016.8 0.0
03/03:00pm 28.7 27.4 15.7 45 8.0 WSW 17 26 9 14 1017.2 1017.1 0.0
03/02:30pm 28.9 25.6 14.1 40 8.9 SW 24 33 13 18 1017.4 1017.3 0.0
03/02:00pm 30.2 28.2 11.6 31 10.8 SSE 13 20 7 11 1017.9 1017.8 0.0
03/01:30pm 29.0 26.2 12.6 36 9.6 SSE 19 24 10 13 1018.2 1018.1 0.0
03/01:00pm 28.7 26.8 13.1 38 9.2 ESE 15 22 8 12 1018.5 1018.4 0.0
03/12:30pm 28.3 27.0 13.7 40 8.7 ESE 13 20 7 11 1018.9 1018.8 0.0
03/12:00pm 28.0 26.3 13.5 41 8.6 E 15 24 8 13 1019.3 1019.2 0.0
03/11:30am 27.0 25.2 13.4 43 8.0 SE 15 26 8 14 1019.8 1019.7 0.0
03/11:00am 26.1 24.0 13.5 45 7.4 ESE 17 24 9 13 1020.2 1020.1 0.0
03/10:30am 24.7 22.2 13.4 49 6.6 ESE 19 26 10 14 1020.5 1020.4 0.0
03/10:00am 24.1 20.6 13.4 51 6.2 ESE 24 33 13 18 1020.7 1020.6 0.0
03/09:30am 22.8 19.2 13.2 54 5.5 ESE 24 35 13 19 1020.8 1020.7 0.0
03/09:00am 22.2 19.4 13.3 57 5.1 E 20 30 11 16 1020.9 1020.8 0.0
03/08:30am 21.4 17.9 13.4 60 4.6 ESE 24 35 13 19 1020.8 1020.7 0.0
03/08:00am 20.3 16.0 13.1 63 4.1 ESE 28 35 15 19 1020.6 1020.5 0.0
03/07:30am 19.3 14.5 12.9 66 3.6 ESE 30 37 16 20 1020.5 1020.4 0.0
03/07:00am 18.9 16.9 12.6 67 3.5 ESE 15 30 8 16 1020.5 1020.4 0.0
03/06:30am 17.8 15.4 12.6 71 2.9 ESE 17 22 9 12 1020.1 1020.0 0.0
03/06:00am 17.4 14.5 12.3 72 2.8 ESE 19 24 10 13 1019.9 1019.8 0.0
03/05:30am 16.8 15.4 12.2 74 2.5 SE 11 15 6 8 1019.9 1019.8 0.0
03/05:00am 17.2 15.1 12.3 73 2.7 ESE 15 20 8 11 1019.8 1019.7 0.0
03/04:30am 17.3 13.8 12.2 72 2.8 ESE 22 30 12 16 1019.7 1019.6 0.0
03/04:00am 17.4 14.4 12.1 71 2.9 ESE 19 28 10 15 1019.5 1019.4 0.0
03/03:30am 17.8 13.9 12.0 69 3.2 ESE 24 32 13 17 1019.3 1019.2 0.0
03/03:00am 18.0 14.8 12.0 68 3.3 ESE 20 26 11 14 1019.2 1019.1 0.0
03/02:30am 18.2 14.6 12.0 67 3.4 ESE 22 33 12 18 1019.0 1018.9 0.0
03/02:00am 18.0 15.5 12.2 69 3.2 ESE 17 24 9 13 1018.9 1018.8 0.0
03/01:30am 18.5 15.3 12.0 66 3.6 ESE 20 28 11 15 1019.0 1018.9 0.0
03/01:00am 18.5 15.0 12.2 66 3.5 ESE 22 30 12 16 1019.0 1018.9 0.0
03/12:30am 18.8 15.3 12.1 65 3.7 ESE 22 37 12 20 1018.9 1018.8 0.0
03/12:00am 19.1 15.6 12.3 64 3.8 ESE 22 35 12 19 1018.9 1018.8 0.0
 
Date/Time
WST
Temp
°C
App
Temp
°C
Dew
Point
Rel
Hum
%
Delta-T
°C
Wind Press
QNH
hPa
Press
MSL
hPa
Rain
since 9 am
mm
Dir
 
Spd
km/h
Gust
km/h
Spd
kts
Gust
kts
02/11:30pm 19.4 15.5 12.2 63 4.0 ESE 24 44 13 24 1018.9 1018.8 0.0
02/11:00pm 19.8 16.0 12.3 62 4.2 SE 24 35 13 19 1018.6 1018.5 0.0
02/10:30pm 20.3 16.5 12.3 60 4.5 ESE 24 35 13 19 1018.4 1018.3 0.0
02/10:00pm 20.5 17.4 12.1 58 4.7 SE 20 26 11 14 1018.6 1018.5 0.0
02/09:30pm 21.2 17.3 12.1 56 5.1 SE 24 33 13 18 1018.2 1018.1 0.0
02/09:00pm 21.9 17.9 11.9 53 5.6 SE 24 41 13 22 1017.8 1017.7 0.0
02/08:30pm 21.8 19.1 11.8 53 5.6 SE 17 20 9 11 1017.4 1017.3 0.0
02/08:00pm 22.2 19.1 11.7 51 5.9 SE 19 28 10 15 1016.8 1016.7 0.0

Other Formats:

Comma delimited format used in spreadsheet applications
http://www.bom.gov.au/fwo/IDW60801/IDW60801.94609.axf

JavaScript Object Notation format (JSON) in row-major order
http://www.bom.gov.au/fwo/IDW60801/IDW60801.94609.json